createdAt,value
2024-04-09T00:01:46.831Z,100134.63
2024-04-09T00:04:16.584Z,100145.91
2024-04-09T00:06:46.810Z,100143.81
2024-04-09T00:09:22.067Z,100148.25
2024-04-09T00:11:54.538Z,100161.95
2024-04-09T00:14:25.847Z,100164.77
2024-04-09T00:16:56.541Z,100166.36
2024-04-09T00:19:26.308Z,100162.85
2024-04-09T00:21:56.031Z,100172.80
2024-04-09T00:24:26.843Z,100193.79
2024-04-09T00:26:59.267Z,100211.06
2024-04-09T00:29:29.238Z,100227.96
2024-04-09T00:31:58.869Z,100220.55
2024-04-09T00:34:28.456Z,100232.71
2024-04-09T00:36:58.985Z,100235.68
2024-04-09T00:39:28.933Z,100231.92
2024-04-09T00:41:58.574Z,100214.49
2024-04-09T00:44:32.545Z,100195.80
2024-04-09T00:47:05.367Z,100190.46
2024-04-09T00:49:35.136Z,100182.17
2024-04-09T00:52:06.031Z,100090.39
2024-04-09T00:54:39.594Z,100059.02
2024-04-09T00:57:09.612Z,100119.55
2024-04-09T00:59:40.052Z,100125.78
2024-04-09T01:02:10.754Z,100164.33
2024-04-09T01:04:41.251Z,100182.66
2024-04-09T01:07:11.129Z,100190.23
2024-04-09T01:09:44.052Z,100193.48
2024-04-09T01:12:13.652Z,100185.16
2024-04-09T01:14:43.933Z,100198.54
2024-04-09T01:17:13.659Z,100218.85
2024-04-09T01:19:43.190Z,100230.50
2024-04-09T01:22:12.659Z,100242.98
2024-04-09T01:24:42.356Z,100257.80
2024-04-09T01:27:15.827Z,100277.58
2024-04-09T01:29:50.471Z,100292.04
2024-04-09T01:32:18.843Z,100305.20
2024-04-09T01:34:52.131Z,100319.75
2024-04-09T01:37:21.831Z,100325.52
2024-04-09T01:39:51.404Z,100313.45
2024-04-09T01:42:21.070Z,100307.45
2024-04-09T01:44:51.023Z,100307.05
2024-04-09T01:47:20.558Z,100307.16
2024-04-09T01:49:50.048Z,100309.80
2024-04-09T01:52:20.962Z,100306.36
2024-04-09T01:54:50.548Z,100296.02
2024-04-09T01:57:20.051Z,100275.73
2024-04-09T01:59:49.649Z,100255.23
2024-04-09T02:02:21.845Z,100260.19
2024-04-09T02:04:54.642Z,100274.09
2024-04-09T02:07:26.648Z,100275.02
2024-04-09T02:09:56.089Z,100274.98
2024-04-09T02:12:25.638Z,100306.85
2024-04-09T02:14:55.173Z,100319.23
2024-04-09T02:17:26.662Z,100324.18
2024-04-09T02:19:56.126Z,100326.90
2024-04-09T02:22:25.955Z,100330.16
2024-04-09T02:24:58.107Z,100308.37
2024-04-09T02:27:29.840Z,100281.84
2024-04-09T02:30:00.636Z,100271.77
2024-04-09T02:32:30.898Z,100260.67
2024-04-09T02:35:02.279Z,100254.80
2024-04-09T02:37:34.512Z,100257.15
2024-04-09T02:40:08.867Z,100270.45
2024-04-09T02:42:40.805Z,100290.60
2024-04-09T02:45:13.055Z,100303.20
2024-04-09T02:47:45.075Z,100307.89
2024-04-09T02:50:17.398Z,100314.63
2024-04-09T02:52:50.524Z,100336.52
2024-04-09T02:55:20.035Z,100341.88
2024-04-09T02:57:50.645Z,100340.45
2024-04-09T03:00:21.057Z,100338.77
2024-04-09T03:02:54.722Z,100335.77
2024-04-09T03:05:31.501Z,100332.08
2024-04-09T03:08:01.198Z,100337.26
2024-04-09T03:10:35.413Z,100336.73
2024-04-09T03:13:05.358Z,100344.01
2024-04-09T03:15:38.339Z,100348.17
2024-04-09T03:18:11.422Z,100357.88
2024-04-09T03:20:41.677Z,100363.73
2024-04-09T03:23:13.650Z,100367.52
2024-04-09T03:25:43.034Z,100381.28
2024-04-09T03:28:12.549Z,100384.52
2024-04-09T03:30:42.229Z,100393.95
2024-04-09T03:33:11.917Z,100387.80
2024-04-09T03:35:50.626Z,100389.41
2024-04-09T03:38:20.120Z,100407.20
2024-04-09T03:40:55.910Z,100413.36
2024-04-09T03:43:25.374Z,100416.94
2024-04-09T03:46:04.450Z,100434.63
2024-04-09T03:48:34.256Z,100458.59
2024-04-09T03:51:05.265Z,100480.50
2024-04-09T03:53:37.510Z,100495.21
2024-04-09T03:56:11.368Z,100489.26
2024-04-09T03:58:42.704Z,100483.10
2024-04-09T04:01:14.431Z,100482.95
2024-04-09T04:03:46.104Z,100491.58
2024-04-09T04:06:16.604Z,100495.59
2024-04-09T04:08:46.830Z,100491.69
2024-04-09T04:11:17.095Z,100486.73
2024-04-09T04:13:46.913Z,100491.05
2024-04-09T04:16:17.273Z,100505.03
2024-04-09T04:18:48.784Z,100512.96
2024-04-09T04:21:22.340Z,100518.27
2024-04-09T04:23:55.182Z,100505.77
2024-04-09T04:26:26.392Z,100508.73
2024-04-09T04:28:56.728Z,100510.53
2024-04-09T04:31:26.998Z,100509.88
2024-04-09T04:33:56.802Z,100499.21
2024-04-09T04:36:27.486Z,100493.17
2024-04-09T04:38:57.063Z,100491.59
2024-04-09T04:41:29.057Z,100504.36
2024-04-09T04:43:58.672Z,100515.05
2024-04-09T04:46:28.612Z,100536.86
2024-04-09T04:49:00.761Z,100533.96
2024-04-09T04:51:30.392Z,100534.76
2024-04-09T04:53:59.987Z,100535.78
2024-04-09T04:56:31.296Z,100537.69
2024-04-09T04:59:02.921Z,100543.73
2024-04-09T05:01:32.708Z,100544.38
2024-04-09T05:04:02.426Z,100543.42
2024-04-09T05:06:32.224Z,100551.33
2024-04-09T05:09:01.827Z,100554.33
2024-04-09T05:11:31.404Z,100558.23
2024-04-09T05:14:00.986Z,100559.62
2024-04-09T05:16:33.325Z,100561.50
2024-04-09T05:19:04.621Z,100563.49
2024-04-09T05:21:34.281Z,100569.24
2024-04-09T05:24:04.018Z,100558.19
2024-04-09T05:26:34.799Z,100557.34
2024-04-09T05:29:06.482Z,100550.17
2024-04-09T05:31:36.045Z,100554.06
2024-04-09T05:34:05.619Z,100552.55
2024-04-09T05:36:39.026Z,100542.89
2024-04-09T05:39:11.861Z,100551.44
2024-04-09T05:41:41.401Z,100550.41
2024-04-09T05:44:10.860Z,100546.30
2024-04-09T05:46:42.821Z,100544.09
2024-04-09T05:49:12.479Z,100547.81
2024-04-09T05:51:42.202Z,100555.61
2024-04-09T05:54:14.126Z,100566.88
2024-04-09T05:56:43.593Z,100570.95
2024-04-09T05:59:13.522Z,100569.71
2024-04-09T06:01:43.144Z,100569.36
2024-04-09T06:04:16.708Z,100570.64
2024-04-09T06:06:47.253Z,100570.98
2024-04-09T06:09:16.993Z,100561.84
2024-04-09T06:11:46.542Z,100560.98
2024-04-09T06:14:17.347Z,100569.20
2024-04-09T06:16:48.956Z,100571.48
2024-04-09T06:19:21.874Z,100573.75
2024-04-09T06:21:51.614Z,100585.78
2024-04-09T06:24:21.220Z,100589.31
2024-04-09T06:26:52.919Z,100601.92
2024-04-09T06:29:22.786Z,100606.55
2024-04-09T06:31:52.525Z,100627.39
2024-04-09T06:34:24.710Z,100640.91
2024-04-09T06:36:54.599Z,100651.16
2024-04-09T06:39:25.996Z,100655.11
2024-04-09T06:42:00.860Z,100656.07
2024-04-09T06:44:33.185Z,100665.73
2024-04-09T06:47:02.845Z,100663.50
2024-04-09T06:49:32.772Z,100663.73
2024-04-09T06:52:02.662Z,100669.34
2024-04-09T06:54:32.493Z,100668.90
2024-04-09T06:57:04.815Z,100671.95
2024-04-09T06:59:35.507Z,100673.82
2024-04-09T07:02:05.185Z,100672.34
2024-04-09T07:04:34.908Z,100664.42
2024-04-09T07:07:05.100Z,100672.13
2024-04-09T07:09:34.858Z,100676.02
2024-04-09T07:12:05.041Z,100668.00
2024-04-09T07:14:35.173Z,100671.47
2024-04-09T07:17:05.444Z,100681.77
2024-04-09T07:19:35.195Z,100682.88
2024-04-09T07:22:04.774Z,100690.05
2024-04-09T07:24:36.927Z,100691.33
2024-04-09T07:27:07.642Z,100683.77
2024-04-09T07:29:37.282Z,100695.55
2024-04-09T07:32:08.721Z,100697.66
2024-04-09T07:34:38.210Z,100693.59
2024-04-09T07:37:07.777Z,100696.04
2024-04-09T07:39:38.103Z,100696.48
2024-04-09T07:42:08.925Z,100705.45
2024-04-09T07:44:40.906Z,100713.23
2024-04-09T07:47:12.860Z,100715.39
2024-04-09T07:49:42.537Z,100720.09
2024-04-09T07:52:12.081Z,100717.91
2024-04-09T07:54:41.622Z,100712.92
2024-04-09T07:57:15.674Z,100716.56
2024-04-09T07:59:48.159Z,100714.13
2024-04-09T08:02:17.650Z,100719.26
2024-04-09T08:04:49.518Z,100734.27
2024-04-09T08:07:19.166Z,100739.01
2024-04-09T08:09:51.976Z,100742.83
2024-04-09T08:12:22.030Z,100733.77
2024-04-09T08:14:52.651Z,100739.25
2024-04-09T08:17:22.329Z,100745.67
2024-04-09T08:19:51.970Z,100751.51
2024-04-09T08:22:21.698Z,100755.73
2024-04-09T08:24:51.448Z,100758.23
2024-04-09T08:27:21.466Z,100761.52
2024-04-09T08:29:51.210Z,100750.09
2024-04-09T08:32:23.277Z,100759.45
2024-04-09T08:34:53.514Z,100760.61
2024-04-09T08:37:24.094Z,100768.08
2024-04-09T08:39:57.098Z,100767.34
2024-04-09T08:42:29.850Z,100766.66
2024-04-09T08:45:01.098Z,100763.71
2024-04-09T08:47:31.669Z,100777.23
2024-04-09T08:50:07.170Z,100770.18
2024-04-09T08:55:09.622Z,100784.40
2024-04-09T08:57:40.134Z,100781.45
2024-04-09T09:00:11.403Z,100790.46
2024-04-09T09:02:41.409Z,100783.28
2024-04-09T09:05:19.879Z,100796.30
2024-04-09T09:08:04.172Z,100795.14
2024-04-09T09:10:36.264Z,100806.66
2024-04-09T09:13:07.045Z,100802.13
2024-04-09T09:15:37.026Z,100808.30
2024-04-09T09:18:07.489Z,100801.13
2024-04-09T09:20:39.621Z,100797.67
2024-04-09T09:23:20.116Z,100796.67
2024-04-09T09:25:53.833Z,100794.91
2024-04-09T09:28:28.918Z,100788.77
2024-04-09T09:31:00.866Z,100785.65
2024-04-09T09:33:35.047Z,100795.67
2024-04-09T09:36:05.810Z,100798.46
2024-04-09T09:38:38.429Z,100784.89
2024-04-09T09:41:09.953Z,100789.38
2024-04-09T09:43:40.286Z,100797.31
2024-04-09T09:46:13.178Z,100783.67
2024-04-09T09:48:43.632Z,100792.23
2024-04-09T09:51:13.724Z,100790.04
2024-04-09T09:53:43.685Z,100801.38
2024-04-09T09:56:14.764Z,100797.05
2024-04-09T09:58:45.166Z,100801.95
2024-04-09T10:01:15.321Z,100804.98
2024-04-09T10:03:46.262Z,100798.91
2024-04-09T10:06:16.846Z,100802.21
2024-04-09T10:08:48.348Z,100808.95
2024-04-09T10:11:23.023Z,100813.55
2024-04-09T10:13:54.900Z,100815.42
2024-04-09T10:16:27.196Z,100822.65
2024-04-09T10:19:01.270Z,100822.35
2024-04-09T10:21:37.137Z,100817.98
2024-04-09T10:24:09.315Z,100819.78
2024-04-09T10:26:45.617Z,100823.89
2024-04-09T10:29:25.404Z,100836.73
2024-04-09T10:31:57.366Z,100851.52
2024-04-09T10:34:29.107Z,100853.85
2024-04-09T10:37:03.546Z,100847.24
2024-04-09T10:39:36.834Z,100862.55
2024-04-09T10:42:08.795Z,100854.17
2024-04-09T10:44:40.616Z,100857.96
2024-04-09T10:47:10.947Z,100863.37
2024-04-09T10:49:43.831Z,100864.20
2024-04-09T10:52:15.008Z,100883.17
2024-04-09T10:54:44.599Z,100876.37
2024-04-09T10:57:14.268Z,100867.70
2024-04-09T10:59:43.844Z,100874.00
2024-04-09T11:02:15.136Z,100881.79
2024-04-09T11:04:47.277Z,100884.80
2024-04-09T11:07:17.097Z,100900.20
2024-04-09T11:09:46.863Z,100892.34
2024-04-09T11:12:17.570Z,100892.44
2024-04-09T11:14:47.480Z,100897.89
2024-04-09T11:17:19.796Z,100899.40
2024-04-09T11:19:50.672Z,100904.59
2024-04-09T11:22:20.778Z,100910.65
2024-04-09T11:24:50.273Z,100910.55
2024-04-09T11:27:20.067Z,100910.40
2024-04-09T11:29:55.128Z,100916.64
2024-04-09T11:32:24.766Z,100917.81
2024-04-09T11:34:55.645Z,100917.58
2024-04-09T11:37:27.895Z,100920.81
2024-04-09T11:40:01.969Z,100919.50
2024-04-09T11:42:31.766Z,100918.58
2024-04-09T11:45:02.953Z,100922.65
2024-04-09T11:47:32.970Z,100921.92
2024-04-09T11:50:05.419Z,100920.74
2024-04-09T11:52:40.017Z,100925.49
2024-04-09T11:55:10.951Z,100918.44
2024-04-09T11:57:45.768Z,100914.80
2024-04-09T12:00:15.899Z,100918.55
2024-04-09T12:02:46.592Z,100925.48
2024-04-09T12:05:19.079Z,100919.05
2024-04-09T12:07:51.399Z,100927.91
2024-04-09T12:10:22.548Z,100926.41
2024-04-09T12:12:53.516Z,100921.96
2024-04-09T12:15:23.606Z,100928.36
2024-04-09T12:17:53.743Z,100932.64
2024-04-09T12:20:23.353Z,100934.03
2024-04-09T12:22:53.227Z,100931.63
2024-04-09T12:25:22.897Z,100930.22
2024-04-09T12:27:52.517Z,100942.60
2024-04-09T12:30:23.500Z,100934.98
2024-04-09T12:33:13.444Z,100937.30
2024-04-09T12:35:43.782Z,100939.99
2024-04-09T12:38:13.691Z,100947.40
2024-04-09T12:40:45.765Z,100937.09
2024-04-09T12:43:16.249Z,100944.38
2024-04-09T12:45:46.179Z,100946.59
2024-04-09T12:48:16.731Z,100954.27
2024-04-09T12:50:46.726Z,100953.64
2024-04-09T12:53:16.611Z,100965.08
2024-04-09T12:55:47.438Z,100967.73
2024-04-09T12:58:18.502Z,100959.05
2024-04-09T13:01:02.041Z,100960.55
2024-04-09T13:03:38.649Z,100966.30
2024-04-09T13:06:09.073Z,100971.39
2024-04-09T13:08:41.553Z,100976.61
2024-04-09T13:11:11.301Z,100977.30
2024-04-09T13:13:41.198Z,100984.36
2024-04-09T13:18:48.257Z,100980.92
2024-04-09T13:21:18.025Z,100986.63
2024-04-09T13:23:47.805Z,100985.75
2024-04-09T13:26:17.865Z,100988.60
2024-04-09T13:28:48.199Z,100994.14
2024-04-09T13:31:21.645Z,101006.73
2024-04-09T13:33:51.272Z,101004.96
2024-04-09T13:36:23.665Z,101014.02
2024-04-09T13:38:53.557Z,101014.98
2024-04-09T13:41:25.482Z,101019.63
2024-04-09T13:43:55.518Z,101006.86
2024-04-09T13:46:25.679Z,101021.98
2024-04-09T13:48:56.348Z,101023.98
2024-04-09T13:51:26.055Z,101022.86
2024-04-09T13:53:55.851Z,101018.66
2024-04-09T13:56:25.514Z,101016.95
2024-04-09T13:58:59.221Z,101031.56
2024-04-09T14:01:28.963Z,101032.02
2024-04-09T14:04:02.465Z,101025.83
2024-04-09T14:06:35.594Z,101032.19
2024-04-09T14:09:05.208Z,101037.05
2024-04-09T14:11:34.980Z,101049.92
2024-04-09T14:14:04.736Z,101055.24
2024-04-09T14:16:36.452Z,101065.51
2024-04-09T14:19:10.903Z,101063.77
2024-04-09T14:21:41.454Z,101066.85
2024-04-09T14:24:11.824Z,101062.02
2024-04-09T14:26:41.976Z,101073.89
2024-04-09T14:29:12.205Z,101078.42
2024-04-09T14:31:44.203Z,101084.69
2024-04-09T14:34:14.004Z,101079.73
2024-04-09T14:36:43.659Z,101086.05
2024-04-09T14:39:15.523Z,101082.33
2024-04-09T14:41:45.444Z,101079.15
2024-04-09T14:44:15.378Z,101080.05
2024-04-09T14:46:47.261Z,101092.30
2024-04-09T14:49:17.193Z,101094.54
2024-04-09T14:51:46.810Z,101098.67
2024-04-09T14:54:16.496Z,101103.64
2024-04-09T14:56:46.241Z,101108.87
2024-04-09T14:59:15.980Z,101120.84
2024-04-09T15:01:45.965Z,101129.56
2024-04-09T15:04:18.354Z,101127.25
2024-04-09T15:06:48.140Z,101146.32
2024-04-09T15:09:20.013Z,101146.44
2024-04-09T15:11:49.630Z,101139.71
2024-04-09T15:14:19.393Z,101143.19
2024-04-09T15:16:53.870Z,101148.33
2024-04-09T15:19:25.724Z,101153.66
2024-04-09T15:21:55.546Z,101158.05
2024-04-09T15:24:25.493Z,101169.08
2024-04-09T15:26:58.974Z,101166.02
2024-04-09T15:29:30.190Z,101179.95
2024-04-09T15:32:00.098Z,101187.30
2024-04-09T15:34:29.978Z,101210.71
2024-04-09T15:36:59.551Z,101211.39
2024-04-09T15:39:30.561Z,101193.48
2024-04-09T15:42:00.349Z,101194.38
2024-04-09T15:44:32.651Z,101199.55
2024-04-09T15:47:02.638Z,101196.91
2024-04-09T15:49:34.703Z,101195.92
2024-04-09T15:52:05.077Z,101200.06
2024-04-09T15:54:36.762Z,101196.52
2024-04-09T15:57:08.448Z,101204.23
2024-04-09T15:59:38.124Z,101212.81
2024-04-09T16:02:07.839Z,101223.00
2024-04-09T16:04:37.557Z,101221.32
2024-04-09T16:07:07.634Z,101220.73
2024-04-09T16:09:37.138Z,101229.31
2024-04-09T16:12:07.924Z,101225.94
2024-04-09T16:14:43.692Z,101230.77
2024-04-09T16:17:14.473Z,101232.39
2024-04-09T16:19:46.795Z,101240.55
2024-04-09T16:22:16.360Z,101250.92
2024-04-09T16:24:45.911Z,101255.27
2024-04-09T16:27:18.049Z,101254.83
2024-04-09T16:29:50.603Z,101261.35
2024-04-09T16:32:22.446Z,101262.28
2024-04-09T16:34:52.471Z,101263.77
2024-04-09T16:37:23.020Z,101270.90
2024-04-09T16:39:54.718Z,101277.90
2024-04-09T16:42:24.343Z,101278.78
2024-04-09T16:44:53.791Z,101288.20
2024-04-09T16:47:23.422Z,101286.08
2024-04-09T16:49:53.111Z,101296.41
2024-04-09T16:52:22.786Z,101299.44
2024-04-09T16:54:52.309Z,101306.02
2024-04-09T16:57:32.797Z,101310.16
2024-04-09T17:00:12.100Z,101320.58
2024-04-09T17:02:41.840Z,101329.86
2024-04-09T17:05:11.989Z,101331.94
2024-04-09T17:07:41.919Z,101331.66
2024-04-09T17:10:16.627Z,101336.09
2024-04-09T17:12:46.095Z,101339.94
2024-04-09T17:15:16.194Z,101343.83
2024-04-09T17:17:48.564Z,101353.83
2024-04-09T17:20:18.514Z,101357.67
2024-04-09T17:22:48.185Z,101371.02
2024-04-09T17:25:20.404Z,101374.33
2024-04-09T17:27:51.936Z,101379.77
2024-04-09T17:30:23.839Z,101384.35
2024-04-09T17:32:53.501Z,101389.80
2024-04-09T17:35:23.410Z,101391.55
2024-04-09T17:37:53.030Z,101392.63
2024-04-09T17:40:24.924Z,101391.66
2024-04-09T17:42:59.910Z,101391.27
2024-04-09T17:45:29.488Z,101389.02
2024-04-09T17:48:00.198Z,101395.58
2024-04-09T17:50:35.359Z,101402.52
2024-04-09T17:53:07.661Z,101407.92
2024-04-09T17:55:37.329Z,101412.52
2024-04-09T17:58:09.130Z,101411.09
2024-04-09T18:00:38.956Z,101417.80
2024-04-09T18:03:10.667Z,101422.33
2024-04-09T18:05:42.923Z,101428.99
2024-04-09T18:08:14.319Z,101429.29
2024-04-09T18:10:48.292Z,101436.19
2024-04-09T18:13:20.459Z,101441.84
2024-04-09T18:15:50.495Z,101442.73
2024-04-09T18:18:20.177Z,101449.63
2024-04-09T18:20:50.849Z,101458.10
2024-04-09T18:23:22.908Z,101461.50
2024-04-09T18:26:06.437Z,101466.91
2024-04-09T18:28:38.062Z,101470.85
2024-04-09T18:31:07.574Z,101481.89
2024-04-09T18:33:37.526Z,101486.01
2024-04-09T18:36:08.436Z,101491.00
2024-04-09T18:38:40.876Z,101494.95
2024-04-09T18:41:11.765Z,101498.96
2024-04-09T18:43:42.565Z,101505.06
2024-04-09T18:46:12.209Z,101512.45
2024-04-09T18:48:44.252Z,101516.76
2024-04-09T18:51:17.200Z,101521.14
2024-04-09T18:53:46.968Z,101530.81
2024-04-09T18:56:16.520Z,101532.06
2024-04-09T18:58:50.366Z,101537.34
2024-04-09T19:01:20.007Z,101541.61
2024-04-09T19:03:52.027Z,101546.34
2024-04-09T19:06:22.097Z,101549.91
2024-04-09T19:08:53.633Z,101554.36
2024-04-09T19:11:28.277Z,101559.01
2024-04-09T19:14:03.174Z,101562.05
2024-04-09T19:16:33.026Z,101565.69
2024-04-09T19:19:02.709Z,101573.57
2024-04-09T19:21:34.244Z,101577.48
2024-04-09T19:24:07.031Z,101585.26
2024-04-09T19:26:36.645Z,101586.20
2024-04-09T19:29:08.381Z,101588.21
2024-04-09T19:31:38.025Z,101591.67
2024-04-09T19:34:10.787Z,101596.14
2024-04-09T19:36:42.890Z,101600.61
2024-04-09T19:39:12.406Z,101606.19
2024-04-09T19:41:42.084Z,101606.63
2024-04-09T19:44:18.037Z,101613.92
2024-04-09T19:46:51.251Z,101619.86
2024-04-09T19:49:22.890Z,101630.61
2024-04-09T19:51:52.491Z,101635.85
2024-04-09T19:54:22.228Z,101642.39
2024-04-09T19:56:51.980Z,101652.61
2024-04-09T19:59:23.168Z,101652.05
2024-04-09T20:01:52.744Z,101651.39
2024-04-09T20:04:25.259Z,101658.70
2024-04-09T20:06:57.939Z,101662.92
2024-04-09T20:09:27.497Z,101665.52
2024-04-09T20:11:57.255Z,101662.06
2024-04-09T20:14:28.253Z,101666.98
2024-04-09T20:16:58.487Z,101676.19
2024-04-09T20:19:30.377Z,101680.73
2024-04-09T20:21:59.931Z,101685.33
2024-04-09T20:24:29.435Z,101685.59
2024-04-09T20:26:58.949Z,101685.61
2024-04-09T20:29:28.536Z,101691.23
2024-04-09T20:31:58.392Z,101692.50
2024-04-09T20:34:28.163Z,101700.67
2024-04-09T20:37:01.552Z,101702.52
2024-04-09T20:39:31.080Z,101711.27
2024-04-09T20:42:00.691Z,101712.71
2024-04-09T20:44:33.518Z,101715.18
2024-04-09T20:47:03.159Z,101718.73
2024-04-09T20:49:32.895Z,101715.02
2024-04-09T20:52:02.458Z,101719.34
2024-04-09T20:54:32.080Z,101720.95
2024-04-09T20:57:01.716Z,101723.16
2024-04-09T20:59:31.992Z,101732.16
2024-04-09T21:02:04.091Z,101727.34
2024-04-09T21:04:33.867Z,101734.34
2024-04-09T21:07:06.390Z,101738.79
2024-04-09T21:09:36.235Z,101741.95
2024-04-09T21:12:07.895Z,101740.72
2024-04-09T21:14:37.795Z,101746.59
2024-04-09T21:17:07.648Z,101750.33
2024-04-09T21:19:39.549Z,101755.05
2024-04-09T21:22:09.083Z,101763.86
2024-04-09T21:24:41.077Z,101765.02
2024-04-09T21:27:10.824Z,101764.89
2024-04-09T21:29:41.910Z,101769.16
2024-04-09T21:32:14.092Z,101776.07
2024-04-09T21:34:43.777Z,101782.25
2024-04-09T21:37:13.395Z,101779.84
2024-04-09T21:39:45.007Z,101786.10
2024-04-09T21:42:16.730Z,101786.84
2024-04-09T21:44:48.741Z,101795.40
2024-04-09T21:47:21.150Z,101796.35
2024-04-09T21:49:50.904Z,101802.29
2024-04-09T21:52:20.532Z,101806.14
2024-04-09T21:54:50.948Z,101810.87
2024-04-09T21:57:23.742Z,101813.86
2024-04-09T21:59:53.897Z,101817.77
2024-04-09T22:02:23.602Z,101827.27
2024-04-09T22:04:55.747Z,101833.14
2024-04-09T22:07:27.456Z,101833.45
2024-04-09T22:09:59.003Z,101840.83
2024-04-09T22:12:31.059Z,101839.79
2024-04-09T22:15:00.541Z,101844.55
2024-04-09T22:17:30.536Z,101851.72
2024-04-09T22:20:00.572Z,101856.50
2024-04-09T22:22:30.119Z,101855.80
2024-04-09T22:24:59.498Z,101857.58
2024-04-09T22:27:28.947Z,101858.14
2024-04-09T22:29:58.580Z,101862.04
2024-04-09T22:32:31.066Z,101863.02
2024-04-09T22:35:00.883Z,101864.73
2024-04-09T22:37:32.965Z,101871.73
2024-04-09T22:40:02.497Z,101878.77
2024-04-09T22:42:35.435Z,101871.04
2024-04-09T22:45:06.427Z,101878.16
2024-04-09T22:47:36.264Z,101882.44
2024-04-09T22:50:07.617Z,101886.48
2024-04-09T22:52:37.325Z,101887.48
2024-04-09T22:55:10.139Z,101894.66
2024-04-09T22:57:39.631Z,101896.39
2024-04-09T23:00:13.220Z,101899.18
2024-04-09T23:02:43.110Z,101901.77
2024-04-09T23:05:15.397Z,101902.98
2024-04-09T23:07:44.905Z,101913.54
2024-04-09T23:10:14.811Z,101916.98
2024-04-09T23:12:44.285Z,101917.89
2024-04-09T23:15:14.046Z,101924.97
2024-04-09T23:17:43.808Z,101925.30
2024-04-09T23:20:13.427Z,101922.95
2024-04-09T23:22:43.487Z,101926.83
2024-04-09T23:25:15.231Z,101921.17
2024-04-09T23:27:44.692Z,101928.25
2024-04-09T23:30:15.772Z,101931.04
2024-04-09T23:32:45.747Z,101935.14
2024-04-09T23:35:17.687Z,101938.67
2024-04-09T23:37:47.654Z,101936.97
2024-04-09T23:40:17.451Z,101941.39
2024-04-09T23:42:49.456Z,101948.10
2024-04-09T23:45:18.959Z,101948.73
2024-04-09T23:47:50.998Z,101954.20
2024-04-09T23:50:21.197Z,101956.91
2024-04-09T23:52:51.267Z,101964.89
2024-04-09T23:55:21.280Z,101966.73
2024-04-09T23:57:50.747Z,101967.14
